createdAt,value
2018-03-08T00:01:47.550Z,5.50
2018-03-08T00:06:48.551Z,5.50
2018-03-08T00:11:49.555Z,5.40
2018-03-08T00:16:50.556Z,5.30
2018-03-08T00:21:52.304Z,5.30
2018-03-08T00:26:53.279Z,5.20
2018-03-08T00:31:54.279Z,5.30
2018-03-08T00:36:55.292Z,5.10
2018-03-08T00:41:56.296Z,5.10
2018-03-08T00:46:57.316Z,5.00
2018-03-08T00:51:58.305Z,4.90
2018-03-08T00:56:59.319Z,4.80
2018-03-08T01:02:00.324Z,4.70
2018-03-08T01:07:02.080Z,4.50
2018-03-08T01:12:03.093Z,4.50
2018-03-08T01:17:04.868Z,4.40
2018-03-08T01:22:05.886Z,4.40
2018-03-08T01:27:07.611Z,4.20
2018-03-08T01:32:09.123Z,4.20
2018-03-08T01:37:10.118Z,4.20
2018-03-08T01:42:11.130Z,4.20
2018-03-08T01:47:12.901Z,4.10
2018-03-08T01:52:13.939Z,4.00
2018-03-08T01:57:14.939Z,4.20
2018-03-08T02:02:15.980Z,4.20
2018-03-08T02:07:16.978Z,4.20
2018-03-08T02:12:18.716Z,4.30
2018-03-08T02:17:19.731Z,4.20
2018-03-08T02:22:20.716Z,4.40
2018-03-08T02:27:21.724Z,4.30
2018-03-08T02:32:23.471Z,4.20
2018-03-08T02:37:24.471Z,4.10
2018-03-08T02:42:25.485Z,4.10
2018-03-08T02:47:27.233Z,4.00
2018-03-08T02:52:28.231Z,4.00
2018-03-08T02:57:29.228Z,3.90
2018-03-08T03:02:30.227Z,3.90
2018-03-08T03:07:31.987Z,3.90
2018-03-08T03:12:32.975Z,3.80
2018-03-08T03:17:33.980Z,3.80
2018-03-08T03:22:34.991Z,3.90
2018-03-08T03:27:36.724Z,4.00
2018-03-08T03:32:37.727Z,4.00
2018-03-08T03:37:38.759Z,4.20
2018-03-08T03:42:40.510Z,4.30
2018-03-08T03:47:41.515Z,4.20
2018-03-08T03:52:42.512Z,4.30
2018-03-08T03:57:44.257Z,4.30
2018-03-08T04:02:45.268Z,4.30
2018-03-08T04:07:46.277Z,4.40
2018-03-08T04:12:48.012Z,4.30
2018-03-08T04:17:49.002Z,4.30
2018-03-08T04:22:50.011Z,4.40
2018-03-08T04:27:51.009Z,4.20
2018-03-08T04:32:52.020Z,4.10
2018-03-08T04:37:53.764Z,4.00
2018-03-08T04:42:54.763Z,4.00
2018-03-08T04:47:55.779Z,4.00
2018-03-08T04:52:57.524Z,4.10
2018-03-08T04:57:58.519Z,4.10
2018-03-08T05:02:59.511Z,4.10
2018-03-08T05:08:00.519Z,4.10
2018-03-08T05:13:02.252Z,4.20
2018-03-08T05:18:03.276Z,4.20
2018-03-08T05:23:04.276Z,4.30
2018-03-08T05:28:05.268Z,4.20
2018-03-08T05:33:07.020Z,4.40
2018-03-08T05:38:08.015Z,4.30
2018-03-08T05:43:09.003Z,4.20
2018-03-08T05:48:10.019Z,4.00
2018-03-08T05:53:11.773Z,4.10
2018-03-08T05:58:12.764Z,4.00
2018-03-08T06:03:13.776Z,4.00
2018-03-08T06:08:14.780Z,4.10
2018-03-08T06:13:15.798Z,4.20
2018-03-08T06:18:16.800Z,4.30
2018-03-08T06:23:17.800Z,4.30
2018-03-08T06:28:18.809Z,4.40
2018-03-08T06:33:19.864Z,4.50
2018-03-08T06:38:20.820Z,4.50
2018-03-08T06:48:50.659Z,4.60
2018-03-08T06:53:51.664Z,4.50
2018-03-08T06:58:53.401Z,4.40
2018-03-08T07:03:54.422Z,4.30
2018-03-08T07:08:55.425Z,4.40
2018-03-08T07:13:57.163Z,4.80
2018-03-08T07:18:58.177Z,4.70
2018-03-08T07:23:59.194Z,6.00
2018-03-08T07:29:00.188Z,6.60
2018-03-08T07:34:01.205Z,5.90
2018-03-08T07:39:02.211Z,5.50
2018-03-08T07:44:03.221Z,5.40
2018-03-08T07:49:04.981Z,5.60
2018-03-08T07:54:06.000Z,5.60
2018-03-08T07:59:07.775Z,5.60
2018-03-08T08:04:08.780Z,5.50
2018-03-08T08:09:09.805Z,5.60
2018-03-08T08:14:10.812Z,5.60
2018-03-08T08:19:11.804Z,5.50
2018-03-08T08:24:12.807Z,5.50
2018-03-08T08:29:13.792Z,5.60
2018-03-08T08:34:14.820Z,5.60
2018-03-08T08:39:15.824Z,5.70
2018-03-08T08:44:16.833Z,5.80
2018-03-08T08:49:17.840Z,5.70
2018-03-08T08:54:19.584Z,6.10
2018-03-08T08:59:20.580Z,6.10
2018-03-08T09:04:21.567Z,6.30
2018-03-08T09:09:22.568Z,6.70
2018-03-08T09:14:23.551Z,6.60
2018-03-08T09:19:24.565Z,6.80
2018-03-08T09:24:25.590Z,7.20
2018-03-08T09:29:27.279Z,8.10
2018-03-08T09:34:28.271Z,9.20
2018-03-08T09:39:29.275Z,10.00
2018-03-08T09:44:30.272Z,10.00
2018-03-08T09:49:31.283Z,8.80
2018-03-08T09:54:32.319Z,9.00
2018-03-08T09:59:33.319Z,9.30
2018-03-08T10:04:34.312Z,8.30
2018-03-08T10:09:36.039Z,8.90
2018-03-08T10:14:37.774Z,8.70
2018-03-08T10:19:38.777Z,8.60
2018-03-08T10:24:39.767Z,8.30
2018-03-08T10:29:40.804Z,8.70
2018-03-08T10:34:41.792Z,8.40
2018-03-08T10:39:42.810Z,8.70
2018-03-08T10:44:43.820Z,9.10
2018-03-08T10:49:45.576Z,8.80
2018-03-08T10:54:46.568Z,8.70
2018-03-08T10:59:47.565Z,8.50
2018-03-08T11:04:54.872Z,8.60
2018-03-08T11:09:55.876Z,8.90
2018-03-08T11:14:56.880Z,8.90
2018-03-08T11:19:58.644Z,8.70
2018-03-08T11:24:59.642Z,8.70
2018-03-08T11:30:00.661Z,8.80
2018-03-08T11:35:01.649Z,9.10
2018-03-08T11:40:02.742Z,9.20
2018-03-08T11:45:03.660Z,9.30
2018-03-08T11:50:04.664Z,9.20
2018-03-08T11:55:06.412Z,9.60
2018-03-08T12:00:07.464Z,9.50
2018-03-08T12:05:08.463Z,9.60
2018-03-08T12:10:09.491Z,9.60
2018-03-08T12:15:10.508Z,9.70
2018-03-08T12:20:11.528Z,9.70
2018-03-08T12:25:12.532Z,9.80
2018-03-08T12:30:13.612Z,9.90
2018-03-08T12:35:14.636Z,10.00
2018-03-08T12:40:15.612Z,10.10
2018-03-08T12:45:16.622Z,10.10
2018-03-08T12:50:17.612Z,10.10
2018-03-08T12:55:18.623Z,10.10
2018-03-08T13:00:19.656Z,10.40
2018-03-08T13:05:21.388Z,10.30
2018-03-08T13:10:22.395Z,10.30
2018-03-08T13:15:23.397Z,10.40
2018-03-08T13:20:24.384Z,10.50
2018-03-08T13:25:25.384Z,10.70
2018-03-08T13:30:27.135Z,10.90
2018-03-08T13:35:28.140Z,10.90
2018-03-08T13:40:29.140Z,10.80
2018-03-08T13:45:30.138Z,10.70
2018-03-08T13:50:31.880Z,10.60
2018-03-08T13:55:32.880Z,10.50
2018-03-08T14:00:33.874Z,10.60
2018-03-08T14:05:34.880Z,10.60
2018-03-08T14:10:36.674Z,10.80
2018-03-08T14:15:37.666Z,10.70
2018-03-08T14:20:39.395Z,10.80
2018-03-08T14:25:40.396Z,10.80
2018-03-08T14:30:41.434Z,10.90
2018-03-08T14:35:43.169Z,10.90
2018-03-08T14:40:44.172Z,10.90
2018-03-08T14:45:45.181Z,11.00
2018-03-08T14:50:46.178Z,11.00
2018-03-08T14:55:47.912Z,11.40
2018-03-08T15:00:48.920Z,11.30
2018-03-08T15:05:49.928Z,11.40
2018-03-08T15:10:50.917Z,11.60
2018-03-08T15:15:51.903Z,11.50
2018-03-08T15:20:53.636Z,11.50
2018-03-08T15:25:54.647Z,11.50
2018-03-08T15:30:55.644Z,11.30
2018-03-08T15:35:56.648Z,11.30
2018-03-08T15:40:58.387Z,11.20
2018-03-08T15:45:59.388Z,11.20
2018-03-08T15:51:00.390Z,11.20
2018-03-08T15:56:01.411Z,11.20
2018-03-08T16:01:03.160Z,11.20
2018-03-08T16:06:04.170Z,11.20
2018-03-08T16:11:05.164Z,11.20
2018-03-08T16:16:06.912Z,11.10
2018-03-08T16:21:07.914Z,11.10
2018-03-08T16:26:08.929Z,11.20
2018-03-08T16:31:09.908Z,11.10
2018-03-08T16:36:11.657Z,11.00
2018-03-08T16:41:12.663Z,11.00
2018-03-08T16:46:13.668Z,11.00
2018-03-08T16:51:14.659Z,11.00
2018-03-08T16:56:15.643Z,11.00
2018-03-08T17:01:17.375Z,10.90
2018-03-08T17:06:18.389Z,10.80
2018-03-08T17:11:19.392Z,10.90
2018-03-08T17:16:20.399Z,10.80
2018-03-08T17:21:22.148Z,10.70
2018-03-08T17:26:23.140Z,10.60
2018-03-08T17:31:24.149Z,10.70
2018-03-08T17:36:25.156Z,10.70
2018-03-08T17:41:26.153Z,10.70
2018-03-08T17:46:27.141Z,10.70
2018-03-08T17:51:28.137Z,10.60
2018-03-08T17:56:29.131Z,10.60
2018-03-08T18:01:30.120Z,10.70
2018-03-08T18:06:31.140Z,10.70
2018-03-08T18:11:32.896Z,10.40
2018-03-08T18:16:33.912Z,10.40
2018-03-08T18:21:35.675Z,10.40
2018-03-08T18:26:36.696Z,10.40
2018-03-08T18:31:38.455Z,10.90
2018-03-08T18:36:39.613Z,10.90
2018-03-08T18:41:40.638Z,10.40
2018-03-08T18:46:41.676Z,8.60
2018-03-08T18:51:42.691Z,8.10
2018-03-08T18:56:43.695Z,7.80
2018-03-08T19:01:44.745Z,7.60
2018-03-08T19:06:46.456Z,6.80
2018-03-08T19:11:50.533Z,6.70
2018-03-08T19:16:54.991Z,6.70
2018-03-08T19:21:57.896Z,6.60
2018-03-08T19:26:58.888Z,6.50
2018-03-08T19:31:59.882Z,6.50
2018-03-08T19:37:00.967Z,6.50
2018-03-08T19:42:04.011Z,6.40
2018-03-08T19:47:06.979Z,6.30
2018-03-08T19:52:07.988Z,6.30
2018-03-08T19:57:09.319Z,5.90
2018-03-08T20:02:10.561Z,5.70
2018-03-08T20:07:11.677Z,5.20
2018-03-08T20:12:13.047Z,5.10
2018-03-08T20:17:14.419Z,5.00
2018-03-08T20:22:15.588Z,4.90
2018-03-08T20:27:17.844Z,5.00
2018-03-08T20:32:19.088Z,5.00
2018-03-08T20:37:20.512Z,4.90
2018-03-08T20:42:21.519Z,5.20
2018-03-08T20:47:23.789Z,5.00
2018-03-08T20:52:26.887Z,4.90
2018-03-08T20:57:28.942Z,4.80
2018-03-08T21:02:30.244Z,4.70
2018-03-08T21:07:31.243Z,4.70
2018-03-08T21:12:32.264Z,4.80
2018-03-08T21:17:34.023Z,4.80
2018-03-08T21:22:35.012Z,4.80
2018-03-08T21:27:36.021Z,4.90
2018-03-08T21:32:37.024Z,4.70
2018-03-08T21:37:38.768Z,4.80
2018-03-08T21:42:39.781Z,4.70
2018-03-08T21:47:40.824Z,4.80
2018-03-08T21:52:41.845Z,4.60
2018-03-08T21:57:42.882Z,4.50
2018-03-08T22:02:44.626Z,4.50
2018-03-08T22:07:45.639Z,4.40
2018-03-08T22:12:46.639Z,4.50
2018-03-08T22:17:48.415Z,4.30
2018-03-08T22:22:49.413Z,4.30
2018-03-08T22:27:50.405Z,4.40
2018-03-08T22:32:52.140Z,4.30
2018-03-08T22:37:53.151Z,4.30
2018-03-08T22:42:54.176Z,4.30
2018-03-08T22:47:55.928Z,4.30
2018-03-08T22:52:56.950Z,4.20
2018-03-08T22:57:57.952Z,4.40
2018-03-08T23:08:31.737Z,4.30
2018-03-08T23:13:32.803Z,4.20
2018-03-08T23:18:33.812Z,4.20
2018-03-08T23:23:35.587Z,4.10
2018-03-08T23:28:36.621Z,4.10
2018-03-08T23:33:38.380Z,4.10
2018-03-08T23:38:40.216Z,4.20
2018-03-08T23:43:41.322Z,4.10
2018-03-08T23:48:42.603Z,4.10
2018-03-08T23:53:43.857Z,4.10
2018-03-08T23:58:45.209Z,4.10
